sensor_id;sensor_type;location;lat;lon;timestamp;pressure;altitude;pressure_sealevel;temperature;humidity
15487;BME280;7845;53.698;10.078;2022-10-16T00:01:05;100546.56;;;18.68;100.00
15487;BME280;7845;53.698;10.078;2022-10-16T00:03:31;100555.13;;;18.73;100.00
15487;BME280;7845;53.698;10.078;2022-10-16T00:05:59;100555.81;;;18.78;100.00
15487;BME280;7845;53.698;10.078;2022-10-16T00:08:25;100553.31;;;18.75;100.00
15487;BME280;7845;53.698;10.078;2022-10-16T00:10:50;100546.56;;;18.68;100.00
15487;BME280;7845;53.698;10.078;2022-10-16T00:13:15;100563.41;;;18.66;100.00
15487;BME280;7845;53.698;10.078;2022-10-16T00:15:43;100564.56;;;18.60;100.00
15487;BME280;7845;53.698;10.078;2022-10-16T00:18:09;100561.44;;;18.51;100.00
15487;BME280;7845;53.698;10.078;2022-10-16T00:20:35;100565.25;;;18.44;100.00
15487;BME280;7845;53.698;10.078;2022-10-16T00:23:02;100564.31;;;18.45;100.00
15487;BME280;7845;53.698;10.078;2022-10-16T00:25:28;100566.09;;;18.44;100.00
15487;BME280;7845;53.698;10.078;2022-10-16T00:27:55;100568.88;;;18.41;100.00
15487;BME280;7845;53.698;10.078;2022-10-16T00:30:21;100566.38;;;18.38;100.00
15487;BME280;7845;53.698;10.078;2022-10-16T00:32:46;100570.00;;;18.36;100.00
15487;BME280;7845;53.698;10.078;2022-10-16T00:35:12;100564.47;;;18.42;100.00
15487;BME280;7845;53.698;10.078;2022-10-16T00:37:37;100564.38;;;18.43;100.00
15487;BME280;7845;53.698;10.078;2022-10-16T00:40:02;100575.81;;;18.44;100.00
15487;BME280;7845;53.698;10.078;2022-10-16T00:42:29;100582.59;;;18.51;100.00
15487;BME280;7845;53.698;10.078;2022-10-16T00:44:56;100583.50;;;18.50;100.00
15487;BME280;7845;53.698;10.078;2022-10-16T00:47:35;100578.03;;;18.54;100.00
15487;BME280;7845;53.698;10.078;2022-10-16T00:50:23;100576.75;;;18.43;100.00
15487;BME280;7845;53.698;10.078;2022-10-16T00:52:51;100570.59;;;18.42;100.00
15487;BME280;7845;53.698;10.078;2022-10-16T00:55:16;100575.91;;;18.42;100.00
15487;BME280;7845;53.698;10.078;2022-10-16T00:57:43;100574.25;;;18.40;100.00
15487;BME280;7845;53.698;10.078;2022-10-16T01:00:11;100575.69;;;18.47;100.00
15487;BME280;7845;53.698;10.078;2022-10-16T01:02:38;100572.44;;;18.40;100.00
15487;BME280;7845;53.698;10.078;2022-10-16T01:05:04;100574.28;;;18.38;100.00
15487;BME280;7845;53.698;10.078;2022-10-16T01:07:47;100584.94;;;18.37;100.00
15487;BME280;7845;53.698;10.078;2022-10-16T01:10:30;100578.06;;;18.33;100.00
15487;BME280;7845;53.698;10.078;2022-10-16T01:13:10;100579.94;;;18.31;100.00
15487;BME280;7845;53.698;10.078;2022-10-16T01:15:45;100588.91;;;18.27;100.00
15487;BME280;7845;53.698;10.078;2022-10-16T01:18:26;100587.97;;;18.28;100.00
15487;BME280;7845;53.698;10.078;2022-10-16T01:21:05;100591.72;;;18.22;100.00
15487;BME280;7845;53.698;10.078;2022-10-16T01:23:51;100587.69;;;18.13;100.00
15487;BME280;7845;53.698;10.078;2022-10-16T01:26:31;100591.78;;;18.20;100.00
15487;BME280;7845;53.698;10.078;2022-10-16T01:29:08;100593.53;;;18.21;100.00
15487;BME280;7845;53.698;10.078;2022-10-16T01:31:36;100592.84;;;18.16;100.00
15487;BME280;7845;53.698;10.078;2022-10-16T01:34:21;100589.44;;;18.13;100.00
15487;BME280;7845;53.698;10.078;2022-10-16T01:37:02;100589.28;;;18.17;100.00
15487;BME280;7845;53.698;10.078;2022-10-16T01:39:32;100591.84;;;18.19;100.00
15487;BME280;7845;53.698;10.078;2022-10-16T01:42:20;100591.13;;;18.15;100.00
15487;BME280;7845;53.698;10.078;2022-10-16T01:44:48;100588.78;;;18.08;100.00
15487;BME280;7845;53.698;10.078;2022-10-16T01:47:15;100588.25;;;18.00;100.00
15487;BME280;7845;53.698;10.078;2022-10-16T01:49:43;100591.91;;;17.97;100.00
15487;BME280;7845;53.698;10.078;2022-10-16T01:52:14;100596.59;;;18.11;100.00
15487;BME280;7845;53.698;10.078;2022-10-16T01:54:44;100595.69;;;18.12;100.00
15487;BME280;7845;53.698;10.078;2022-10-16T01:57:12;100593.34;;;18.04;100.00
15487;BME280;7845;53.698;10.078;2022-10-16T01:59:42;100597.72;;;18.05;100.00
15487;BME280;7845;53.698;10.078;2022-10-16T02:02:10;100595.97;;;18.04;100.00
15487;BME280;7845;53.698;10.078;2022-10-16T02:04:46;100595.44;;;17.96;100.00
15487;BME280;7845;53.698;10.078;2022-10-16T02:07:13;100598.22;;;17.93;100.00
15487;BME280;7845;53.698;10.078;2022-10-16T02:09:40;100597.47;;;17.90;100.00
15487;BME280;7845;53.698;10.078;2022-10-16T02:12:10;100591.78;;;18.00;100.00
15487;BME280;7845;53.698;10.078;2022-10-16T02:14:39;100595.19;;;18.02;100.00
15487;BME280;7845;53.698;10.078;2022-10-16T02:17:14;100597.53;;;17.88;100.00
15487;BME280;7845;53.698;10.078;2022-10-16T02:19:41;100592.19;;;17.90;100.00
15487;BME280;7845;53.698;10.078;2022-10-16T02:22:08;100590.75;;;17.83;100.00
15487;BME280;7845;53.698;10.078;2022-10-16T02:25:01;100589.53;;;17.90;100.00
15487;BME280;7845;53.698;10.078;2022-10-16T02:30:29;100589.66;;;17.87;100.00
15487;BME280;7845;53.698;10.078;2022-10-16T02:32:56;100592.19;;;17.90;100.00
15487;BME280;7845;53.698;10.078;2022-10-16T02:35:24;100592.31;;;17.87;100.00
15487;BME280;7845;53.698;10.078;2022-10-16T02:37:50;100591.56;;;17.83;100.00
15487;BME280;7845;53.698;10.078;2022-10-16T02:40:18;100591.44;;;17.86;100.00
15487;BME280;7845;53.698;10.078;2022-10-16T02:42:44;100592.44;;;17.84;100.00
15487;BME280;7845;53.698;10.078;2022-10-16T02:45:10;100596.13;;;17.80;100.00
15487;BME280;7845;53.698;10.078;2022-10-16T02:47:36;100586.41;;;17.80;100.00
15487;BME280;7845;53.698;10.078;2022-10-16T02:50:02;100594.34;;;17.80;100.00
15487;BME280;7845;53.698;10.078;2022-10-16T02:52:28;100598.03;;;17.76;100.00
15487;BME280;7845;53.698;10.078;2022-10-16T02:54:53;100596.13;;;17.80;100.00
15487;BME280;7845;53.698;10.078;2022-10-16T02:57:18;100593.50;;;17.80;100.00
15487;BME280;7845;53.698;10.078;2022-10-16T02:59:45;100594.66;;;17.73;100.00
15487;BME280;7845;53.698;10.078;2022-10-16T03:02:10;100595.53;;;17.73;100.00
15487;BME280;7845;53.698;10.078;2022-10-16T03:04:36;100592.34;;;17.65;100.00
15487;BME280;7845;53.698;10.078;2022-10-16T03:07:02;100601.28;;;17.61;100.00
15487;BME280;7845;53.698;10.078;2022-10-16T03:09:27;100596.50;;;17.47;100.00
15487;BME280;7845;53.698;10.078;2022-10-16T03:11:52;100591.22;;;17.47;100.00
15487;BME280;7845;53.698;10.078;2022-10-16T03:14:18;100591.16;;;17.49;100.00
15487;BME280;7845;53.698;10.078;2022-10-16T03:16:43;100583.28;;;17.47;100.00
15487;BME280;7845;53.698;10.078;2022-10-16T03:19:09;100588.78;;;17.43;100.00
15487;BME280;7845;53.698;10.078;2022-10-16T03:21:34;100589.63;;;17.43;100.00
15487;BME280;7845;53.698;10.078;2022-10-16T03:24:00;100594.28;;;17.37;100.00
15487;BME280;7845;53.698;10.078;2022-10-16T03:26:25;100588.03;;;17.39;100.00
15487;BME280;7845;53.698;10.078;2022-10-16T03:28:51;100581.94;;;17.37;100.00
15487;BME280;7845;53.698;10.078;2022-10-16T03:31:16;100589.78;;;17.39;100.00
15487;BME280;7845;53.698;10.078;2022-10-16T03:33:41;100596.00;;;17.38;100.00
15487;BME280;7845;53.698;10.078;2022-10-16T03:36:07;100595.94;;;17.39;100.00
15487;BME280;7845;53.698;10.078;2022-10-16T03:38:32;100590.63;;;17.41;100.00
15487;BME280;7845;53.698;10.078;2022-10-16T03:40:58;100592.50;;;17.37;100.00
15487;BME280;7845;53.698;10.078;2022-10-16T03:43:23;100599.03;;;17.27;100.00
15487;BME280;7845;53.698;10.078;2022-10-16T03:45:50;100597.81;;;17.36;100.00
15487;BME280;7845;53.698;10.078;2022-10-16T03:48:17;100597.91;;;17.34;100.00
15487;BME280;7845;53.698;10.078;2022-10-16T03:50:43;100594.94;;;17.42;100.00
15487;BME280;7845;53.698;10.078;2022-10-16T03:53:08;100601.34;;;17.36;100.00
15487;BME280;7845;53.698;10.078;2022-10-16T03:55:34;100597.91;;;17.34;100.00
15487;BME280;7845;53.698;10.078;2022-10-16T03:57:59;100604.03;;;17.35;100.00
15487;BME280;7845;53.698;10.078;2022-10-16T04:00:25;100600.69;;;17.30;100.00
15487;BME280;7845;53.698;10.078;2022-10-16T04:02:50;100598.69;;;17.36;100.00
15487;BME280;7845;53.698;10.078;2022-10-16T04:05:15;100612.06;;;17.32;100.00
15487;BME280;7845;53.698;10.078;2022-10-16T04:07:41;100609.56;;;17.29;100.00
15487;BME280;7845;53.698;10.078;2022-10-16T04:10:06;100621.69;;;17.33;100.00
15487;BME280;7845;53.698;10.078;2022-10-16T04:12:32;100632.25;;;17.33;100.00
15487;BME280;7845;53.698;10.078;2022-10-16T04:15:07;100642.22;;;17.25;100.00
15487;BME280;7845;53.698;10.078;2022-10-16T04:17:32;100647.72;;;17.19;100.00
15487;BME280;7845;53.698;10.078;2022-10-16T04:19:58;100651.38;;;17.14;100.00
15487;BME280;7845;53.698;10.078;2022-10-16T04:22:24;100639.06;;;17.15;100.00
15487;BME280;7845;53.698;10.078;2022-10-16T04:24:50;100644.06;;;17.23;100.00
15487;BME280;7845;53.698;10.078;2022-10-16T04:27:15;100653.88;;;17.19;100.00
15487;BME280;7845;53.698;10.078;2022-10-16T04:29:40;100653.09;;;17.17;100.00
15487;BME280;7845;53.698;10.078;2022-10-16T04:32:08;100649.69;;;17.13;100.00
15487;BME280;7845;53.698;10.078;2022-10-16T04:34:34;100649.50;;;17.18;100.00
15487;BME280;7845;53.698;10.078;2022-10-16T04:36:59;100639.03;;;17.17;100.00
15487;BME280;7845;53.698;10.078;2022-10-16T04:39:25;100652.97;;;17.20;100.00
15487;BME280;7845;53.698;10.078;2022-10-16T04:41:50;100653.09;;;17.17;100.00
15487;BME280;7845;53.698;10.078;2022-10-16T04:44:15;100656.50;;;17.19;100.00
15487;BME280;7845;53.698;10.078;2022-10-16T04:46:41;100670.34;;;17.26;100.00
15487;BME280;7845;53.698;10.078;2022-10-16T04:49:07;100656.22;;;17.27;100.00
15487;BME280;7845;53.698;10.078;2022-10-16T04:51:33;100668.81;;;17.20;100.00
15487;BME280;7845;53.698;10.078;2022-10-16T04:53:58;100677.53;;;17.21;100.00
15487;BME280;7845;53.698;10.078;2022-10-16T04:56:23;100666.88;;;17.24;100.00
15487;BME280;7845;53.698;10.078;2022-10-16T04:58:50;100663.53;;;17.20;100.00
15487;BME280;7845;53.698;10.078;2022-10-16T05:01:15;100672.34;;;17.19;100.00
15487;BME280;7845;53.698;10.078;2022-10-16T05:03:40;100668.91;;;17.17;100.00
15487;BME280;7845;53.698;10.078;2022-10-16T05:06:06;100662.81;;;17.15;100.00
15487;BME280;7845;53.698;10.078;2022-10-16T05:08:32;100663.22;;;17.04;100.00
15487;BME280;7845;53.698;10.078;2022-10-16T05:10:58;100671.69;;;17.12;100.00
15487;BME280;7845;53.698;10.078;2022-10-16T05:13:23;100669.50;;;17.00;100.00
15487;BME280;7845;53.698;10.078;2022-10-16T05:15:49;100669.16;;;17.09;100.00
15487;BME280;7845;53.698;10.078;2022-10-16T05:18:15;100679.72;;;17.09;100.00
15487;BME280;7845;53.698;10.078;2022-10-16T05:20:41;100676.97;;;17.12;100.00
15487;BME280;7845;53.698;10.078;2022-10-16T05:23:07;100685.91;;;17.08;100.00
15487;BME280;7845;53.698;10.078;2022-10-16T05:25:32;100685.91;;;17.08;100.00
15487;BME280;7845;53.698;10.078;2022-10-16T05:27:57;100680.63;;;17.08;100.00
15487;BME280;7845;53.698;10.078;2022-10-16T05:30:23;100686.66;;;17.12;100.00
15487;BME280;7845;53.698;10.078;2022-10-16T05:32:49;100688.53;;;17.08;100.00
15487;BME280;7845;53.698;10.078;2022-10-16T05:35:16;100700.56;;;17.17;100.00
15487;BME280;7845;53.698;10.078;2022-10-16T05:37:42;100701.47;;;17.16;100.00
15487;BME280;7845;53.698;10.078;2022-10-16T05:40:08;100701.47;;;17.16;100.00
15487;BME280;7845;53.698;10.078;2022-10-16T05:42:33;100701.19;;;17.24;100.00
15487;BME280;7845;53.698;10.078;2022-10-16T05:44:58;100705.72;;;17.20;100.00
15487;BME280;7845;53.698;10.078;2022-10-16T05:47:24;100709.09;;;17.24;100.00
15487;BME280;7845;53.698;10.078;2022-10-16T05:49:50;100706.44;;;17.24;100.00
15487;BME280;7845;53.698;10.078;2022-10-16T05:52:15;100699.41;;;17.24;100.00
15487;BME280;7845;53.698;10.078;2022-10-16T05:54:40;100702.88;;;17.26;100.00
15487;BME280;7845;53.698;10.078;2022-10-16T05:57:06;100694.31;;;17.20;100.00
15487;BME280;7845;53.698;10.078;2022-10-16T05:59:31;100704.22;;;17.13;100.00
15487;BME280;7845;53.698;10.078;2022-10-16T06:01:58;100718.28;;;17.13;100.00
15487;BME280;7845;53.698;10.078;2022-10-16T06:04:23;100715.03;;;17.05;100.00
15487;BME280;7845;53.698;10.078;2022-10-16T06:06:49;100721.03;;;17.10;100.00
15487;BME280;7845;53.698;10.078;2022-10-16T06:09:14;100716.53;;;17.12;100.00
15487;BME280;7845;53.698;10.078;2022-10-16T06:11:40;100712.25;;;17.10;100.00
15487;BME280;7845;53.698;10.078;2022-10-16T06:14:05;100714.97;;;17.07;100.00
15487;BME280;7845;53.698;10.078;2022-10-16T06:16:35;100715.78;;;17.09;100.00
15487;BME280;7845;53.698;10.078;2022-10-16T06:19:02;100713.09;;;17.10;100.00
15487;BME280;7845;53.698;10.078;2022-10-16T06:21:29;100720.84;;;17.15;100.00
15487;BME280;7845;53.698;10.078;2022-10-16T06:23:55;100724.25;;;17.19;100.00
15487;BME280;7845;53.698;10.078;2022-10-16T06:26:24;100720.63;;;17.21;100.00
15487;BME280;7845;53.698;10.078;2022-10-16T06:28:50;100724.09;;;17.23;100.00
15487;BME280;7845;53.698;10.078;2022-10-16T06:31:16;100721.56;;;17.20;100.00
15487;BME280;7845;53.698;10.078;2022-10-16T06:33:43;100720.63;;;17.21;100.00
15487;BME280;7845;53.698;10.078;2022-10-16T06:36:14;100725.09;;;17.19;100.00
15487;BME280;7845;53.698;10.078;2022-10-16T06:38:41;100725.78;;;17.24;100.00
15487;BME280;7845;53.698;10.078;2022-10-16T06:41:08;100740.66;;;17.27;100.00
15487;BME280;7845;53.698;10.078;2022-10-16T06:43:35;100744.16;;;17.27;100.00
15487;BME280;7845;53.698;10.078;2022-10-16T06:46:01;100737.84;;;17.31;100.00
15487;BME280;7845;53.698;10.078;2022-10-16T06:48:28;100742.97;;;17.36;100.00
15487;BME280;7845;53.698;10.078;2022-10-16T06:53:22;100758.56;;;17.42;100.00
15487;BME280;7845;53.698;10.078;2022-10-16T06:55:48;100770.06;;;17.41;100.00
15487;BME280;7845;53.698;10.078;2022-10-16T06:58:13;100767.25;;;17.45;100.00
15487;BME280;7845;53.698;10.078;2022-10-16T07:00:39;100768.69;;;17.55;100.00
15487;BME280;7845;53.698;10.078;2022-10-16T07:03:04;100762.19;;;17.64;100.00
15487;BME280;7845;53.698;10.078;2022-10-16T07:05:30;100769.09;;;17.68;100.00
15487;BME280;7845;53.698;10.078;2022-10-16T07:07:55;100770.22;;;17.84;100.00
15487;BME280;7845;53.698;10.078;2022-10-16T07:10:21;100771.63;;;17.94;100.00
15487;BME280;7845;53.698;10.078;2022-10-16T07:12:49;100782.94;;;17.98;100.00
15487;BME280;7845;53.698;10.078;2022-10-16T07:15:14;100775.13;;;17.95;100.00
15487;BME280;7845;53.698;10.078;2022-10-16T07:17:40;100773.94;;;18.02;100.00
15487;BME280;7845;53.698;10.078;2022-10-16T07:20:06;100780.72;;;18.09;100.00
15487;BME280;7845;53.698;10.078;2022-10-16T07:22:31;100785.25;;;18.05;100.00
15487;BME280;7845;53.698;10.078;2022-10-16T07:24:56;100781.59;;;18.09;100.00
15487;BME280;7845;53.698;10.078;2022-10-16T07:27:22;100798.88;;;18.18;100.00
15487;BME280;7845;53.698;10.078;2022-10-16T07:29:49;100788.94;;;18.24;100.00
15487;BME280;7845;53.698;10.078;2022-10-16T07:32:15;100792.69;;;18.41;100.00
15487;BME280;7845;53.698;10.078;2022-10-16T07:34:40;100795.16;;;18.45;100.00
15487;BME280;7845;53.698;10.078;2022-10-16T07:37:05;100800.81;;;18.58;100.00
15487;BME280;7845;53.698;10.078;2022-10-16T07:39:30;100805.28;;;18.57;100.00
15487;BME280;7845;53.698;10.078;2022-10-16T07:41:56;100812.88;;;18.65;100.00
15487;BME280;7845;53.698;10.078;2022-10-16T07:44:21;100814.41;;;18.70;100.00
15487;BME280;7845;53.698;10.078;2022-10-16T07:46:46;100810.25;;;18.65;100.00
15487;BME280;7845;53.698;10.078;2022-10-16T07:49:12;100813.34;;;18.54;100.00
15487;BME280;7845;53.698;10.078;2022-10-16T07:51:37;100822.69;;;18.63;100.00
15487;BME280;7845;53.698;10.078;2022-10-16T07:54:04;100821.97;;;18.58;100.00
15487;BME280;7845;53.698;10.078;2022-10-16T07:56:30;100810.00;;;18.49;100.00
15487;BME280;7845;53.698;10.078;2022-10-16T07:58:55;100825.03;;;18.47;100.00
15487;BME280;7845;53.698;10.078;2022-10-16T08:01:21;100831.19;;;18.48;100.00
15487;BME280;7845;53.698;10.078;2022-10-16T08:03:49;100839.16;;;18.46;100.00
15487;BME280;7845;53.698;10.078;2022-10-16T08:06:17;100837.97;;;18.32;100.00
15487;BME280;7845;53.698;10.078;2022-10-16T08:08:43;100843.22;;;18.33;100.00
15487;BME280;7845;53.698;10.078;2022-10-16T08:11:09;100843.50;;;18.25;100.00
15487;BME280;7845;53.698;10.078;2022-10-16T08:13:34;100847.75;;;18.30;100.00
15487;BME280;7845;53.698;10.078;2022-10-16T08:16:00;100844.31;;;18.28;100.00
15487;BME280;7845;53.698;10.078;2022-10-16T08:18:26;100839.06;;;18.26;100.00
15487;BME280;7845;53.698;10.078;2022-10-16T08:20:59;100843.13;;;18.35;100.00
15487;BME280;7845;53.698;10.078;2022-10-16T08:23:25;100853.59;;;18.38;100.00
15487;BME280;7845;53.698;10.078;2022-10-16T08:25:52;100855.44;;;18.36;100.00
15487;BME280;7845;53.698;10.078;2022-10-16T08:28:18;100855.44;;;18.36;100.00
15487;BME280;7845;53.698;10.078;2022-10-16T08:30:43;100852.50;;;18.43;100.00
15487;BME280;7845;53.698;10.078;2022-10-16T08:33:09;100856.78;;;18.46;100.00
15487;BME280;7845;53.698;10.078;2022-10-16T08:35:34;100855.59;;;18.31;100.00
15487;BME280;7845;53.698;10.078;2022-10-16T08:37:59;100860.72;;;18.36;100.00
15487;BME280;7845;53.698;10.078;2022-10-16T08:40:27;100857.97;;;18.39;100.00
15487;BME280;7845;53.698;10.078;2022-10-16T08:43:19;100862.28;;;18.41;100.00
15487;BME280;7845;53.698;10.078;2022-10-16T08:48:50;100862.16;;;18.67;100.00
15487;BME280;7845;53.698;10.078;2022-10-16T08:51:33;100862.00;;;18.49;100.00
15487;BME280;7845;53.698;10.078;2022-10-16T08:54:04;100863.31;;;18.60;100.00
15487;BME280;7845;53.698;10.078;2022-10-16T08:56:30;100861.41;;;18.64;100.00
15487;BME280;7845;53.698;10.078;2022-10-16T08:58:58;100864.03;;;18.64;100.00
15487;BME280;7845;53.698;10.078;2022-10-16T09:01:35;100872.47;;;18.73;100.00
15487;BME280;7845;53.698;10.078;2022-10-16T09:04:51;100875.69;;;18.82;100.00
15487;BME280;7845;53.698;10.078;2022-10-16T09:07:33;100890.81;;;18.78;100.00
15487;BME280;7845;53.698;10.078;2022-10-16T09:15:56;100888.06;;;18.81;100.00
15487;BME280;7845;53.698;10.078;2022-10-16T09:18:41;100894.13;;;18.83;100.00
15487;BME280;7845;53.698;10.078;2022-10-16T09:21:16;100891.69;;;18.78;100.00
15487;BME280;7845;53.698;10.078;2022-10-16T09:23:43;100897.22;;;18.72;100.00
15487;BME280;7845;53.698;10.078;2022-10-16T09:26:13;100905.50;;;18.63;100.00
15487;BME280;7845;53.698;10.078;2022-10-16T09:28:39;100918.25;;;18.75;100.00
15487;BME280;7845;53.698;10.078;2022-10-16T09:31:05;100904.16;;;18.75;100.00
15487;BME280;7845;53.698;10.078;2022-10-16T09:33:35;100903.09;;;18.79;100.00
15487;BME280;7845;53.698;10.078;2022-10-16T09:36:04;100908.91;;;18.89;100.00
15487;BME280;7845;53.698;10.078;2022-10-16T09:38:35;100907.03;;;18.91;100.00
15487;BME280;7845;53.698;10.078;2022-10-16T09:41:16;100901.75;;;18.91;100.00
15487;BME280;7845;53.698;10.078;2022-10-16T09:46:31;100894.44;;;18.97;100.00
15487;BME280;7845;53.698;10.078;2022-10-16T09:49:18;100895.97;;;19.03;100.00
15487;BME280;7845;53.698;10.078;2022-10-16T09:51:45;100895.97;;;19.03;100.00
15487;BME280;7845;53.698;10.078;2022-10-16T09:56:37;100907.38;;;19.05;100.00
15487;BME280;7845;53.698;10.078;2022-10-16T09:59:12;100920.41;;;19.09;100.00
15487;BME280;7845;53.698;10.078;2022-10-16T10:01:49;100922.94;;;19.12;100.00
15487;BME280;7845;53.698;10.078;2022-10-16T10:04:16;100927.19;;;19.16;100.00
15487;BME280;7845;53.698;10.078;2022-10-16T10:06:47;100927.19;;;19.16;100.00
15487;BME280;7845;53.698;10.078;2022-10-16T10:09:24;100934.81;;;19.24;100.00
15487;BME280;7845;53.698;10.078;2022-10-16T10:11:58;100939.22;;;19.23;100.00
15487;BME280;7845;53.698;10.078;2022-10-16T10:19:29;100931.91;;;19.30;100.00
15487;BME280;7845;53.698;10.078;2022-10-16T10:21:54;100930.75;;;19.37;100.00
15487;BME280;7845;53.698;10.078;2022-10-16T10:24:20;100934.31;;;19.36;100.00
15487;BME280;7845;53.698;10.078;2022-10-16T10:27:07;100934.22;;;19.39;100.00
15487;BME280;7845;53.698;10.078;2022-10-16T10:29:47;100941.84;;;19.47;100.00
15487;BME280;7845;53.698;10.078;2022-10-16T10:32:40;100941.50;;;19.54;100.00
15487;BME280;7845;53.698;10.078;2022-10-16T10:35:34;100945.91;;;19.55;100.00
15487;BME280;7845;53.698;10.078;2022-10-16T10:38:10;100937.09;;;19.55;100.00
15487;BME280;7845;53.698;10.078;2022-10-16T10:40:53;100956.28;;;19.60;100.00
15487;BME280;7845;53.698;10.078;2022-10-16T10:43:41;100939.00;;;19.71;100.00
15487;BME280;7845;53.698;10.078;2022-10-16T10:46:23;100941.88;;;19.87;100.00
15487;BME280;7845;53.698;10.078;2022-10-16T10:57:38;100948.81;;;19.89;100.00
15487;BME280;7845;53.698;10.078;2022-10-16T11:00:23;100945.38;;;19.87;100.00
15487;BME280;7845;53.698;10.078;2022-10-16T11:03:54;100954.72;;;19.96;100.00
15487;BME280;7845;53.698;10.078;2022-10-16T11:06:07;100952.16;;;19.95;100.00
15487;BME280;7845;53.698;10.078;2022-10-16T11:08:39;100946.03;;;19.93;100.00
15487;BME280;7845;53.698;10.078;2022-10-16T11:11:34;100953.19;;;20.11;100.00
15487;BME280;7845;53.698;10.078;2022-10-16T11:14:18;100971.81;;;20.09;100.00
15487;BME280;7845;53.698;10.078;2022-10-16T11:19:48;100968.69;;;20.20;100.00
15487;BME280;7845;53.698;10.078;2022-10-16T11:22:37;100959.94;;;20.18;100.00
15487;BME280;7845;53.698;10.078;2022-10-16T11:25:22;100966.16;;;20.17;100.00
15487;BME280;7845;53.698;10.078;2022-10-16T11:28:35;100967.00;;;20.19;100.00
15487;BME280;7845;53.698;10.078;2022-10-16T11:31:24;100976.44;;;20.24;100.00
15487;BME280;7845;53.698;10.078;2022-10-16T11:36:39;100983.72;;;20.60;100.00
15487;BME280;7845;53.698;10.078;2022-10-16T11:39:20;100983.28;;;20.69;100.00
15487;BME280;7845;53.698;10.078;2022-10-16T11:42:01;100972.59;;;20.70;100.00
15487;BME280;7845;53.698;10.078;2022-10-16T11:44:51;100985.56;;;20.76;100.00
15487;BME280;7845;53.698;10.078;2022-10-16T11:47:33;100982.59;;;21.03;100.00
15487;BME280;7845;53.698;10.078;2022-10-16T11:50:48;100992.03;;;20.89;100.00
15487;BME280;7845;53.698;10.078;2022-10-16T11:55:34;100991.72;;;21.16;100.00
15487;BME280;7845;53.698;10.078;2022-10-16T12:01:01;100991.06;;;21.11;100.00
15487;BME280;7845;53.698;10.078;2022-10-16T12:03:40;100995.88;;;21.03;100.00
15487;BME280;7845;53.698;10.078;2022-10-16T12:06:31;100998.28;;;21.07;100.00
15487;BME280;7845;53.698;10.078;2022-10-16T12:09:00;100989.59;;;21.04;100.00
15487;BME280;7845;53.698;10.078;2022-10-16T12:13:51;100998.66;;;21.18;100.00
15487;BME280;7845;53.698;10.078;2022-10-16T12:16:19;101005.84;;;21.16;100.00
15487;BME280;7845;53.698;10.078;2022-10-16T12:18:46;101011.16;;;21.35;97.40
15487;BME280;7845;53.698;10.078;2022-10-16T12:21:14;101013.22;;;21.47;98.80
15487;BME280;7845;53.698;10.078;2022-10-16T12:23:52;101017.22;;;21.73;99.59
15487;BME280;7845;53.698;10.078;2022-10-16T12:26:32;101021.41;;;21.60;95.55
15487;BME280;7845;53.698;10.078;2022-10-16T12:29:38;101025.59;;;21.65;91.55
15487;BME280;7845;53.698;10.078;2022-10-16T12:32:06;101023.44;;;21.55;91.93
15487;BME280;7845;53.698;10.078;2022-10-16T12:34:44;101031.81;;;21.47;93.96
15487;BME280;7845;53.698;10.078;2022-10-16T12:37:33;101035.97;;;21.34;90.79
15487;BME280;7845;53.698;10.078;2022-10-16T12:39:59;101036.91;;;21.33;91.99
15487;BME280;7845;53.698;10.078;2022-10-16T12:42:36;101031.72;;;21.30;89.66
15487;BME280;7845;53.698;10.078;2022-10-16T12:45:32;101038.97;;;21.45;92.51
15487;BME280;7845;53.698;10.078;2022-10-16T12:48:00;101033.25;;;21.35;92.34
15487;BME280;7845;53.698;10.078;2022-10-16T12:53:00;101043.31;;;21.29;92.06
15487;BME280;7845;53.698;10.078;2022-10-16T12:55:26;101047.56;;;21.14;89.96
15487;BME280;7845;53.698;10.078;2022-10-16T12:58:11;101053.97;;;20.90;90.64
15487;BME280;7845;53.698;10.078;2022-10-16T13:01:02;101044.03;;;20.75;83.83
15487;BME280;7845;53.698;10.078;2022-10-16T13:09:17;101060.28;;;20.87;86.77
15487;BME280;7845;53.698;10.078;2022-10-16T13:14:46;101065.31;;;20.73;81.95
15487;BME280;7845;53.698;10.078;2022-10-16T13:20:06;101090.97;;;20.93;84.92
15487;BME280;7845;53.698;10.078;2022-10-16T13:25:31;101090.59;;;21.01;85.99
15487;BME280;7845;53.698;10.078;2022-10-16T13:28:07;101100.31;;;21.02;85.81
15487;BME280;7845;53.698;10.078;2022-10-16T13:30:42;101104.09;;;20.96;84.42
15487;BME280;7845;53.698;10.078;2022-10-16T13:33:21;101107.03;;;21.10;86.06
15487;BME280;7845;53.698;10.078;2022-10-16T13:35:56;101112.69;;;21.21;88.52
15487;BME280;7845;53.698;10.078;2022-10-16T13:38:24;101113.50;;;21.03;86.88
15487;BME280;7845;53.698;10.078;2022-10-16T13:40:56;101126.34;;;21.14;88.35
15487;BME280;7845;53.698;10.078;2022-10-16T13:46:14;101128.59;;;21.03;91.68
15487;BME280;7845;53.698;10.078;2022-10-16T13:48:40;101136.38;;;21.06;90.61
15487;BME280;7845;53.698;10.078;2022-10-16T13:51:16;101126.56;;;21.08;88.42
15487;BME280;7845;53.698;10.078;2022-10-16T13:53:42;101141.31;;;21.15;91.74
15487;BME280;7845;53.698;10.078;2022-10-16T13:56:11;101154.19;;;21.04;93.27
15487;BME280;7845;53.698;10.078;2022-10-16T13:58:37;101146.34;;;21.01;90.34
15487;BME280;7845;53.698;10.078;2022-10-16T14:01:16;101144.97;;;20.92;89.61
15487;BME280;7845;53.698;10.078;2022-10-16T14:03:43;101152.25;;;21.07;92.07